Time;durP1;ratioP1;P1;durP2;ratioP2;P2;SDS_P1;SDS_P2;PMS_P1;PMS_P2;Temp;Humidity;BMP_temperature;BMP_pressure;BME280_temperature;BME280_humidity;BME280_pressure;Samples;Min_cycle;Max_cycle;Signal;HPM_P1;HPM_P2
2023/07/30 00:00:58;;;;;;;10.53;4.03;;;;;;;;;;5053602;28;20190;-65
2023/07/30 00:03:24;;;;;;;9.07;4.10;;;;;;;;;;5053627;28;20198;-66
2023/07/30 00:05:56;;;;;;;6.47;4.00;;;;;;;;;;5035616;28;20188;-65
2023/07/30 00:08:22;;;;;;;10.83;4.10;;;;;;;;;;5053263;28;20190;-65
2023/07/30 00:10:48;;;;;;;9.27;4.53;;;;;;;;;;5035489;28;20175;-65
2023/07/30 00:13:14;;;;;;;11.20;4.13;;;;;;;;;;5053381;28;20228;-65
2023/07/30 00:15:40;;;;;;;6.93;3.60;;;;;;;;;;5053813;28;20644;-65
2023/07/30 00:18:06;;;;;;;10.53;4.07;;;;;;;;;;5053314;28;20672;-65
2023/07/30 00:20:34;;;;;;;13.63;4.80;;;;;;;;;;5053403;28;20264;-65
2023/07/30 00:23:00;;;;;;;9.23;4.33;;;;;;;;;;5053470;28;20631;-65
2023/07/30 00:25:26;;;;;;;8.90;3.93;;;;;;;;;;5054063;28;20174;-64
2023/07/30 00:27:52;;;;;;;7.93;4.03;;;;;;;;;;5053109;28;20214;-65
2023/07/30 00:30:18;;;;;;;8.70;4.67;;;;;;;;;;5035827;28;20183;-64
2023/07/30 00:32:44;;;;;;;15.43;4.77;;;;;;;;;;5035500;28;20193;-64
2023/07/30 00:35:10;;;;;;;7.43;4.70;;;;;;;;;;5053529;28;20256;-64
2023/07/30 00:37:36;;;;;;;9.17;4.20;;;;;;;;;;5054324;28;20198;-65
2023/07/30 00:40:03;;;;;;;11.13;4.50;;;;;;;;;;5055150;28;20567;-64
2023/07/30 00:42:29;;;;;;;8.27;4.77;;;;;;;;;;5053927;28;20198;-66
2023/07/30 00:44:55;;;;;;;13.53;5.13;;;;;;;;;;5035172;28;20181;-65
2023/07/30 00:47:22;;;;;;;10.33;4.93;;;;;;;;;;5053555;28;20336;-65
2023/07/30 00:49:48;;;;;;;9.63;4.60;;;;;;;;;;5053146;28;20178;-65
2023/07/30 00:52:15;;;;;;;10.10;4.93;;;;;;;;;;5053209;28;20295;-65
2023/07/30 00:54:41;;;;;;;11.20;4.87;;;;;;;;;;5052799;28;20186;-64
2023/07/30 00:57:07;;;;;;;12.13;4.20;;;;;;;;;;5052866;28;20203;-64
2023/07/30 00:59:33;;;;;;;14.60;4.63;;;;;;;;;;5037725;28;20194;-64
2023/07/30 01:02:00;;;;;;;6.73;4.20;;;;;;;;;;5057143;28;20206;-65
2023/07/30 01:04:26;;;;;;;9.83;4.90;;;;;;;;;;5057238;28;20232;-65
2023/07/30 01:06:52;;;;;;;14.70;4.23;;;;;;;;;;5038874;28;20622;-65
2023/07/30 01:09:18;;;;;;;8.70;4.70;;;;;;;;;;5057186;28;20174;-64
2023/07/30 01:11:44;;;;;;;7.53;4.13;;;;;;;;;;5056644;28;20181;-65
2023/07/30 01:14:11;;;;;;;14.13;5.13;;;;;;;;;;5056635;28;20174;-65
2023/07/30 01:16:37;;;;;;;13.00;5.10;;;;;;;;;;5038607;28;20178;-64
2023/07/30 01:19:04;;;;;;;9.77;4.80;;;;;;;;;;5056356;28;20537;-64
2023/07/30 01:21:33;;;;;;;9.10;4.50;;;;;;;;;;5056536;28;20559;-64
2023/07/30 01:23:59;;;;;;;9.10;5.07;;;;;;;;;;5056764;28;20178;-64
2023/07/30 01:26:27;;;;;;;11.70;4.73;;;;;;;;;;5056428;28;20541;-64
2023/07/30 01:28:56;;;;;;;8.57;4.70;;;;;;;;;;5056404;28;20652;-65
2023/07/30 01:31:23;;;;;;;12.73;4.80;;;;;;;;;;5038441;28;20644;-65
2023/07/30 01:33:51;;;;;;;10.10;5.00;;;;;;;;;;5056392;28;20175;-64
2023/07/30 01:36:17;;;;;;;8.50;4.93;;;;;;;;;;5056314;28;20177;-66
2023/07/30 01:38:44;;;;;;;10.30;4.97;;;;;;;;;;5056362;28;20676;-65
2023/07/30 01:41:10;;;;;;;10.43;4.97;;;;;;;;;;5038363;28;20182;-64
2023/07/30 01:43:36;;;;;;;12.37;5.27;;;;;;;;;;5055955;28;20288;-65
2023/07/30 01:46:02;;;;;;;12.87;5.23;;;;;;;;;;5055891;28;20245;-64
2023/07/30 01:48:28;;;;;;;14.73;5.90;;;;;;;;;;5037009;28;20902;-64
2023/07/30 01:50:54;;;;;;;10.25;5.38;;;;;;;;;;5036929;28;20891;-64
2023/07/30 01:53:20;;;;;;;9.90;4.90;;;;;;;;;;5056111;28;20178;-64
2023/07/30 01:55:46;;;;;;;11.20;4.73;;;;;;;;;;5037921;28;20558;-65
2023/07/30 01:58:13;;;;;;;11.23;4.90;;;;;;;;;;5037693;28;20198;-64
2023/07/30 02:00:39;;;;;;;7.57;4.47;;;;;;;;;;5055669;28;20170;-65
2023/07/30 02:03:05;;;;;;;12.43;4.93;;;;;;;;;;5037744;28;20198;-65
2023/07/30 02:05:31;;;;;;;8.73;4.43;;;;;;;;;;5037763;28;20175;-64
2023/07/30 02:07:57;;;;;;;9.17;4.73;;;;;;;;;;5055526;28;20695;-65
2023/07/30 02:10:24;;;;;;;11.10;4.73;;;;;;;;;;5056094;28;20174;-64
2023/07/30 02:12:50;;;;;;;9.37;4.47;;;;;;;;;;5055443;28;20261;-65
2023/07/30 02:15:16;;;;;;;15.80;4.60;;;;;;;;;;5055444;28;20261;-64
2023/07/30 02:17:42;;;;;;;13.97;5.50;;;;;;;;;;5055330;28;20203;-65
2023/07/30 02:20:08;;;;;;;11.33;4.70;;;;;;;;;;5055347;28;20182;-64
2023/07/30 02:22:34;;;;;;;6.87;4.60;;;;;;;;;;5054851;28;20576;-64
2023/07/30 02:25:00;;;;;;;10.83;4.57;;;;;;;;;;5055283;28;20171;-65
2023/07/30 02:27:26;;;;;;;10.63;5.30;;;;;;;;;;5055039;28;20211;-66
2023/07/30 02:29:52;;;;;;;9.30;5.13;;;;;;;;;;5055185;28;20178;-64
2023/07/30 02:32:18;;;;;;;9.33;4.83;;;;;;;;;;5055130;28;20182;-65
2023/07/30 02:34:44;;;;;;;9.83;5.40;;;;;;;;;;5055364;28;20205;-64
2023/07/30 02:37:10;;;;;;;13.43;4.43;;;;;;;;;;5054936;28;20203;-64
2023/07/30 02:39:36;;;;;;;13.53;4.93;;;;;;;;;;5055216;28;20221;-64
2023/07/30 02:42:02;;;;;;;12.60;5.23;;;;;;;;;;5054996;28;20622;-64
2023/07/30 02:44:28;;;;;;;10.47;5.47;;;;;;;;;;5036872;28;20332;-64
2023/07/30 02:46:54;;;;;;;9.03;4.93;;;;;;;;;;5054853;28;20199;-65
2023/07/30 02:49:20;;;;;;;8.07;5.33;;;;;;;;;;5054883;28;20235;-64
2023/07/30 02:51:48;;;;;;;16.00;5.97;;;;;;;;;;5037780;28;20674;-64
2023/07/30 02:54:14;;;;;;;11.65;5.45;;;;;;;;;;5054955;28;20864;-64
2023/07/30 02:56:40;;;;;;;14.63;5.27;;;;;;;;;;5054776;28;20555;-64
2023/07/30 02:59:06;;;;;;;11.00;5.27;;;;;;;;;;5055109;28;20258;-65
2023/07/30 03:01:32;;;;;;;10.37;4.60;;;;;;;;;;5036748;28;20224;-64
2023/07/30 03:03:58;;;;;;;15.50;5.40;;;;;;;;;;5055209;28;20183;-64
2023/07/30 03:06:24;;;;;;;11.13;5.33;;;;;;;;;;5054614;28;20704;-64
2023/07/30 03:08:50;;;;;;;9.10;5.27;;;;;;;;;;5054676;28;20684;-65
2023/07/30 03:11:16;;;;;;;10.77;4.93;;;;;;;;;;5055094;28;20561;-64
2023/07/30 03:13:42;;;;;;;9.63;4.90;;;;;;;;;;5054397;28;20185;-65
2023/07/30 03:16:08;;;;;;;12.73;4.87;;;;;;;;;;5054701;28;20178;-64
2023/07/30 03:18:34;;;;;;;12.30;4.73;;;;;;;;;;5054662;28;20248;-64
2023/07/30 03:21:00;;;;;;;10.43;4.57;;;;;;;;;;5036125;28;20285;-65
2023/07/30 03:23:26;;;;;;;16.90;4.97;;;;;;;;;;5054377;28;20206;-65
2023/07/30 03:25:52;;;;;;;10.87;4.37;;;;;;;;;;5036643;28;20183;-64
2023/07/30 03:28:18;;;;;;;6.97;4.90;;;;;;;;;;5036456;28;20222;-63
2023/07/30 03:30:44;;;;;;;15.70;5.40;;;;;;;;;;5071648;22;20617;-71
2023/07/30 03:33:10;;;;;;;12.57;4.93;;;;;;;;;;5016608;28;20746;-70
2023/07/30 03:35:36;;;;;;;10.83;4.93;;;;;;;;;;5034112;28;20563;-70
2023/07/30 03:38:02;;;;;;;12.73;4.90;;;;;;;;;;5034205;28;20179;-70
2023/07/30 03:40:29;;;;;;;14.10;5.20;;;;;;;;;;5033942;28;20210;-70
2023/07/30 03:42:55;;;;;;;11.83;5.53;;;;;;;;;;5016274;28;20633;-70
2023/07/30 03:45:21;;;;;;;13.87;5.20;;;;;;;;;;5016118;28;20187;-71
2023/07/30 03:47:47;;;;;;;9.87;5.10;;;;;;;;;;5016328;28;20611;-71
2023/07/30 03:50:13;;;;;;;14.90;5.57;;;;;;;;;;5016151;28;20222;-70
2023/07/30 03:52:39;;;;;;;12.60;5.30;;;;;;;;;;5034193;28;20175;-71
2023/07/30 03:55:05;;;;;;;10.43;5.27;;;;;;;;;;5017378;28;20190;-70
2023/07/30 03:57:31;;;;;;;14.43;5.75;;;;;;;;;;5032796;28;20387;-70
2023/07/30 03:59:57;;;;;;;13.38;5.75;;;;;;;;;;5014761;28;20437;-70
2023/07/30 04:02:23;;;;;;;12.30;5.82;;;;;;;;;;5032768;28;20734;-70
2023/07/30 04:04:49;;;;;;;10.55;5.32;;;;;;;;;;5014797;28;20756;-71
2023/07/30 04:07:16;;;;;;;14.77;4.60;;;;;;;;;;5033835;28;20178;-71
2023/07/30 04:09:42;;;;;;;12.80;5.20;;;;;;;;;;5016127;28;20313;-70
2023/07/30 04:12:08;;;;;;;13.73;5.47;;;;;;;;;;5015354;28;20426;-71
2023/07/30 04:14:34;;;;;;;12.85;5.55;;;;;;;;;;5015013;28;20964;-71
2023/07/30 04:17:00;;;;;;;11.82;5.20;;;;;;;;;;5032910;28;20418;-70
2023/07/30 04:19:26;;;;;;;13.63;5.53;;;;;;;;;;5032990;28;20745;-70
2023/07/30 04:21:52;;;;;;;13.45;5.28;;;;;;;;;;5014913;28;20391;-70
2023/07/30 04:24:18;;;;;;;11.55;5.28;;;;;;;;;;5014688;28;20388;-70
2023/07/30 04:26:44;;;;;;;12.88;5.25;;;;;;;;;;5032553;28;20386;-70
2023/07/30 04:29:10;;;;;;;15.85;5.72;;;;;;;;;;5032704;28;20403;-70
2023/07/30 04:31:36;;;;;;;11.65;5.03;;;;;;;;;;5014684;28;20445;-70
2023/07/30 04:34:02;;;;;;;12.60;5.10;;;;;;;;;;5016846;28;20383;-71
2023/07/30 04:36:28;;;;;;;10.88;5.05;;;;;;;;;;5037095;28;20375;-70
2023/07/30 04:38:54;;;;;;;16.42;5.60;;;;;;;;;;5036574;28;20922;-70
2023/07/30 04:41:20;;;;;;;10.90;4.60;;;;;;;;;;5037872;28;20191;-70
2023/07/30 04:43:46;;;;;;;9.35;4.85;;;;;;;;;;5036577;28;20403;-70
2023/07/30 04:46:12;;;;;;;10.07;4.50;;;;;;;;;;5039968;28;20171;-71
2023/07/30 04:48:38;;;;;;;15.40;5.37;;;;;;;;;;5038427;28;20182;-71
2023/07/30 04:51:04;;;;;;;10.73;4.70;;;;;;;;;;5019682;28;20285;-70
2023/07/30 04:53:30;;;;;;;12.33;5.03;;;;;;;;;;5037403;28;20652;-70
2023/07/30 04:55:57;;;;;;;11.47;5.10;;;;;;;;;;5037262;28;20182;-70
2023/07/30 04:58:23;;;;;;;16.07;5.37;;;;;;;;;;5037130;28;20265;-71
2023/07/30 05:00:49;;;;;;;12.10;5.13;;;;;;;;;;5037142;28;20199;-71
2023/07/30 05:03:15;;;;;;;13.63;5.03;;;;;;;;;;5019277;28;20760;-70
2023/07/30 05:05:41;;;;;;;15.40;5.20;;;;;;;;;;5019358;28;20211;-70
2023/07/30 05:08:07;;;;;;;17.90;6.10;;;;;;;;;;5019108;28;20180;-71
2023/07/30 05:10:33;;;;;;;15.47;9.87;;;;;;;;;;5018978;28;20210;-70
2023/07/30 05:12:59;;;;;;;27.90;17.87;;;;;;;;;;5019108;28;20274;-71
2023/07/30 05:15:25;;;;;;;29.27;16.20;;;;;;;;;;5037011;28;20302;-71
2023/07/30 05:17:51;;;;;;;50.17;29.30;;;;;;;;;;5037056;28;20183;-70
2023/07/30 05:20:17;;;;;;;33.53;19.10;;;;;;;;;;5019644;28;20202;-70
2023/07/30 05:22:43;;;;;;;27.13;14.40;;;;;;;;;;5037815;28;20214;-71
2023/07/30 05:25:09;;;;;;;24.87;14.80;;;;;;;;;;5037719;28;20186;-70
2023/07/30 05:27:38;;;;;;;21.83;10.83;;;;;;;;;;5018984;28;20645;-70
2023/07/30 05:30:04;;;;;;;32.77;20.40;;;;;;;;;;5018774;28;20176;-71
2023/07/30 05:32:30;;;;;;;21.77;14.97;;;;;;;;;;5036747;28;20176;-70
2023/07/30 05:34:56;;;;;;;22.87;11.00;;;;;;;;;;5019390;28;20183;-72
2023/07/30 05:37:23;;;;;;;16.70;9.70;;;;;;;;;;5038198;28;20182;-70
2023/07/30 05:39:49;;;;;;;19.00;9.90;;;;;;;;;;5024904;28;20179;-71
2023/07/30 05:42:15;;;;;;;19.03;8.73;;;;;;;;;;5037421;28;20581;-71
2023/07/30 05:44:40;;;;;;;20.47;7.80;;;;;;;;;;5038113;28;20176;-71
2023/07/30 05:47:06;;;;;;;13.07;6.17;;;;;;;;;;5037876;28;20768;-71
2023/07/30 05:49:32;;;;;;;19.47;5.63;;;;;;;;;;5021423;28;20676;-71
2023/07/30 05:51:58;;;;;;;19.17;6.10;;;;;;;;;;5018633;28;20337;-71
2023/07/30 05:54:24;;;;;;;13.80;6.27;;;;;;;;;;5035983;28;20240;-71
2023/07/30 05:56:50;;;;;;;14.50;5.10;;;;;;;;;;5036041;28;20190;-70
2023/07/30 05:59:16;;;;;;;15.10;4.70;;;;;;;;;;5018291;28;20194;-70
2023/07/30 06:01:42;;;;;;;17.00;5.33;;;;;;;;;;5035938;28;20226;-70
2023/07/30 06:04:08;;;;;;;15.47;5.30;;;;;;;;;;5035881;28;20167;-70
2023/07/30 06:06:34;;;;;;;12.43;4.73;;;;;;;;;;5036030;28;20179;-70
2023/07/30 06:09:00;;;;;;;15.47;4.90;;;;;;;;;;5018125;28;20185;-70
2023/07/30 06:11:27;;;;;;;17.37;4.93;;;;;;;;;;5017926;28;20575;-70
2023/07/30 06:13:53;;;;;;;15.17;4.90;;;;;;;;;;5036031;28;20210;-70
2023/07/30 06:16:20;;;;;;;11.00;4.33;;;;;;;;;;5035985;28;20207;-70
2023/07/30 06:18:46;;;;;;;13.77;4.23;;;;;;;;;;5035713;28;20179;-70
2023/07/30 06:21:12;;;;;;;11.03;4.07;;;;;;;;;;5017720;28;20297;-70
2023/07/30 06:23:38;;;;;;;8.80;3.53;;;;;;;;;;5035762;28;20261;-70
2023/07/30 06:26:04;;;;;;;11.40;4.03;;;;;;;;;;5036070;28;20179;-70
2023/07/30 06:28:30;;;;;;;11.37;4.50;;;;;;;;;;5017762;28;20179;-70
2023/07/30 06:30:56;;;;;;;12.43;4.07;;;;;;;;;;5038556;28;20218;-70
2023/07/30 06:33:22;;;;;;;9.50;3.63;;;;;;;;;;5018383;28;20229;-70
2023/07/30 06:35:47;;;;;;;9.83;3.37;;;;;;;;;;5035357;28;20649;-70
2023/07/30 06:38:13;;;;;;;17.27;3.77;;;;;;;;;;5017565;28;20257;-70
2023/07/30 06:40:39;;;;;;;10.33;3.47;;;;;;;;;;5017276;28;20207;-70
2023/07/30 06:43:05;;;;;;;11.33;3.27;;;;;;;;;;5035643;28;20285;-70
2023/07/30 06:45:31;;;;;;;10.60;3.33;;;;;;;;;;5017759;28;20628;-69
2023/07/30 06:47:57;;;;;;;6.63;2.80;;;;;;;;;;5018810;28;20191;-69
2023/07/30 06:50:23;;;;;;;10.33;3.70;;;;;;;;;;5036622;28;20226;-69
2023/07/30 06:52:49;;;;;;;10.27;3.40;;;;;;;;;;5017889;28;20187;-70
2023/07/30 06:55:15;;;;;;;8.93;3.50;;;;;;;;;;5016922;28;20183;-70
2023/07/30 06:57:41;;;;;;;13.93;3.47;;;;;;;;;;5016338;28;20273;-70
2023/07/30 07:00:07;;;;;;;12.00;3.40;;;;;;;;;;5016800;28;20560;-69
2023/07/30 07:02:33;;;;;;;9.53;3.33;;;;;;;;;;5034714;28;20202;-70
2023/07/30 07:04:59;;;;;;;12.07;3.27;;;;;;;;;;5016777;28;20189;-70
2023/07/30 07:07:25;;;;;;;7.30;3.37;;;;;;;;;;5016729;28;20225;-70
2023/07/30 07:09:51;;;;;;;15.20;3.20;;;;;;;;;;5016745;28;20178;-70
2023/07/30 07:12:17;;;;;;;11.73;3.60;;;;;;;;;;5034329;28;20211;-70
2023/07/30 07:14:43;;;;;;;8.37;3.17;;;;;;;;;;5034346;28;20183;-70
2023/07/30 07:17:09;;;;;;;10.47;3.70;;;;;;;;;;5034462;28;20175;-70
2023/07/30 07:19:36;;;;;;;11.87;3.70;;;;;;;;;;5034298;28;20180;-70
2023/07/30 07:22:04;;;;;;;12.00;3.80;;;;;;;;;;5016322;28;20206;-70
2023/07/30 07:24:30;;;;;;;11.93;3.43;;;;;;;;;;5017369;28;20566;-70
2023/07/30 07:26:57;;;;;;;11.53;3.63;;;;;;;;;;5016510;28;20612;-70
2023/07/30 07:29:23;;;;;;;12.13;3.97;;;;;;;;;;5016407;28;20175;-70
2023/07/30 07:31:49;;;;;;;10.87;3.60;;;;;;;;;;5016207;28;20214;-70
2023/07/30 07:34:14;;;;;;;11.87;3.47;;;;;;;;;;5016241;28;20556;-70
2023/07/30 07:36:40;;;;;;;12.90;3.80;;;;;;;;;;5033994;28;20649;-70
2023/07/30 07:39:06;;;;;;;13.67;3.57;;;;;;;;;;5016348;28;20179;-70
2023/07/30 07:41:32;;;;;;;12.93;3.87;;;;;;;;;;5034232;28;20192;-70
2023/07/30 07:43:59;;;;;;;15.00;4.23;;;;;;;;;;5033995;28;20306;-70
2023/07/30 07:46:27;;;;;;;12.37;4.33;;;;;;;;;;5034129;28;20226;-70
2023/07/30 07:48:53;;;;;;;10.53;3.83;;;;;;;;;;5033835;28;20199;-70
2023/07/30 07:51:19;;;;;;;10.87;3.77;;;;;;;;;;5033719;28;20209;-70
2023/07/30 07:53:45;;;;;;;10.80;3.53;;;;;;;;;;5034307;28;20183;-71
2023/07/30 07:56:11;;;;;;;12.07;4.27;;;;;;;;;;5034532;28;20175;-70
2023/07/30 07:58:37;;;;;;;9.83;4.10;;;;;;;;;;5034108;28;20175;-70
2023/07/30 08:01:03;;;;;;;14.53;4.23;;;;;;;;;;5015928;28;20195;-70
2023/07/30 08:03:29;;;;;;;12.80;4.27;;;;;;;;;;5015807;28;20198;-70
2023/07/30 08:05:55;;;;;;;13.95;4.40;;;;;;;;;;5032433;28;20379;-70
2023/07/30 08:08:21;;;;;;;13.73;4.78;;;;;;;;;;5014826;28;20379;-70
2023/07/30 08:10:47;;;;;;;14.98;4.43;;;;;;;;;;5033052;28;20525;-71
2023/07/30 08:13:13;;;;;;;14.10;4.32;;;;;;;;;;5032583;28;20398;-69
2023/07/30 08:15:39;;;;;;;12.02;4.47;;;;;;;;;;5032952;28;20880;-69
2023/07/30 08:18:05;;;;;;;12.35;4.30;;;;;;;;;;5033797;28;20387;-69
2023/07/30 08:20:31;;;;;;;15.38;4.72;;;;;;;;;;5014641;28;20387;-70
2023/07/30 08:22:57;;;;;;;11.02;4.40;;;;;;;;;;5032327;28;20407;-70
2023/07/30 08:25:23;;;;;;;14.32;4.55;;;;;;;;;;5032622;28;20367;-70
2023/07/30 08:27:49;;;;;;;15.57;4.50;;;;;;;;;;5014339;28;20375;-69
2023/07/30 08:30:15;;;;;;;11.60;4.03;;;;;;;;;;5032019;28;20450;-70
2023/07/30 08:32:43;;;;;;;12.87;3.80;;;;;;;;;;5033478;28;20254;-69
2023/07/30 08:35:09;;;;;;;13.10;3.73;;;;;;;;;;5015432;28;20182;-70
2023/07/30 08:37:35;;;;;;;18.17;4.10;;;;;;;;;;5015429;28;20187;-70
2023/07/30 08:40:01;;;;;;;12.87;3.50;;;;;;;;;;5032887;28;20244;-70
2023/07/30 08:42:27;;;;;;;13.90;4.27;;;;;;;;;;5015295;28;20717;-70
2023/07/30 08:44:53;;;;;;;14.77;4.07;;;;;;;;;;5033166;28;20202;-70
2023/07/30 08:47:19;;;;;;;10.10;4.00;;;;;;;;;;5015474;28;20552;-70
2023/07/30 08:49:45;;;;;;;17.07;4.13;;;;;;;;;;5033450;28;20206;-70
2023/07/30 08:52:11;;;;;;;10.17;4.00;;;;;;;;;;5033578;28;20775;-70
2023/07/30 08:54:38;;;;;;;14.60;5.07;;;;;;;;;;5033457;28;20187;-70
2023/07/30 08:57:05;;;;;;;14.07;3.67;;;;;;;;;;5033413;28;20190;-70
2023/07/30 08:59:43;;;;;;;17.10;4.30;;;;;;;;;;5015426;28;20179;-70
2023/07/30 09:02:12;;;;;;;13.83;4.13;;;;;;;;;;5015192;28;20217;-70
2023/07/30 09:04:38;;;;;;;17.57;4.30;;;;;;;;;;5015130;28;20701;-70
2023/07/30 09:07:04;;;;;;;14.47;4.07;;;;;;;;;;5033187;28;20175;-70
2023/07/30 09:09:30;;;;;;;10.40;3.83;;;;;;;;;;5033992;28;20179;-69
2023/07/30 09:11:56;;;;;;;14.07;4.30;;;;;;;;;;5016170;28;20681;-70
2023/07/30 09:14:22;;;;;;;17.07;4.50;;;;;;;;;;5033185;28;20179;-70
2023/07/30 09:16:48;;;;;;;10.37;3.57;;;;;;;;;;5015088;28;20179;-70
2023/07/30 09:19:17;;;;;;;12.97;3.70;;;;;;;;;;5033423;28;20557;-70
2023/07/30 09:21:43;;;;;;;12.83;3.77;;;;;;;;;;5036782;28;20195;-70
2023/07/30 09:24:09;;;;;;;12.60;3.70;;;;;;;;;;5036637;28;20642;-70
2023/07/30 09:26:46;;;;;;;12.53;3.83;;;;;;;;;;5036496;28;20238;-70
2023/07/30 09:29:12;;;;;;;16.60;4.30;;;;;;;;;;5018565;28;20171;-70
2023/07/30 09:31:56;;;;;;;10.53;3.10;;;;;;;;;;5018299;28;20585;-70
2023/07/30 09:34:23;;;;;;;14.77;3.80;;;;;;;;;;5036778;28;20159;-70
2023/07/30 09:36:51;;;;;;;9.87;3.40;;;;;;;;;;5036339;28;20179;-69
2023/07/30 09:39:18;;;;;;;11.73;3.40;;;;;;;;;;5036177;28;20185;-70
2023/07/30 09:41:45;;;;;;;15.97;4.53;;;;;;;;;;5036126;28;20206;-70
2023/07/30 09:44:11;;;;;;;12.40;3.73;;;;;;;;;;5018554;28;20198;-69
2023/07/30 09:46:44;;;;;;;15.63;3.50;;;;;;;;;;5018499;28;20278;-70
2023/07/30 09:49:10;;;;;;;11.70;3.10;;;;;;;;;;5018330;28;20657;-70
2023/07/30 09:51:38;;;;;;;14.27;3.57;;;;;;;;;;5036317;28;20195;-69
2023/07/30 09:54:06;;;;;;;8.70;3.43;;;;;;;;;;5036027;28;20225;-70
2023/07/30 09:56:32;;;;;;;10.97;3.37;;;;;;;;;;5035855;28;20679;-70
2023/07/30 09:58:58;;;;;;;10.67;3.53;;;;;;;;;;5018136;28;20219;-70
2023/07/30 10:01:26;;;;;;;16.93;3.80;;;;;;;;;;5036216;28;20195;-70
2023/07/30 10:03:53;;;;;;;12.03;3.70;;;;;;;;;;5040514;28;20202;-69
2023/07/30 10:06:19;;;;;;;12.17;3.17;;;;;;;;;;5019102;28;20172;-70
2023/07/30 10:08:46;;;;;;;10.70;3.60;;;;;;;;;;5037914;28;20228;-69
2023/07/30 10:11:12;;;;;;;10.47;3.33;;;;;;;;;;5019472;28;20688;-70
2023/07/30 10:13:41;;;;;;;9.50;3.13;;;;;;;;;;5020018;28;20564;-70
2023/07/30 10:16:13;;;;;;;9.30;3.07;;;;;;;;;;5036208;28;20186;-70
2023/07/30 10:18:39;;;;;;;7.90;2.60;;;;;;;;;;5036023;28;20234;-70
2023/07/30 10:21:09;;;;;;;7.43;3.03;;;;;;;;;;5035732;28;20195;-70
2023/07/30 10:23:35;;;;;;;9.07;2.93;;;;;;;;;;5018028;28;20211;-69
2023/07/30 10:26:09;;;;;;;7.77;3.10;;;;;;;;;;5018182;28;20194;-70
2023/07/30 10:28:38;;;;;;;8.23;3.00;;;;;;;;;;5018466;28;20195;-70
2023/07/30 10:31:08;;;;;;;8.47;2.87;;;;;;;;;;5016104;28;20245;-70
2023/07/30 10:33:47;;;;;;;6.03;2.57;;;;;;;;;;5017697;28;20187;-70
2023/07/30 10:36:13;;;;;;;7.80;3.03;;;;;;;;;;5035071;28;20179;-70
2023/07/30 10:38:41;;;;;;;8.10;2.83;;;;;;;;;;5017319;28;20182;-70
2023/07/30 10:41:09;;;;;;;7.07;3.00;;;;;;;;;;5035051;28;20237;-70
2023/07/30 10:43:36;;;;;;;11.03;2.70;;;;;;;;;;5017173;28;20203;-70
2023/07/30 10:46:02;;;;;;;13.47;2.60;;;;;;;;;;5034872;28;20179;-70
2023/07/30 10:48:32;;;;;;;11.50;2.93;;;;;;;;;;5017660;28;20261;-70
2023/07/30 10:50:59;;;;;;;7.37;2.80;;;;;;;;;;5017004;28;20207;-70
2023/07/30 10:53:25;;;;;;;9.00;2.60;;;;;;;;;;5035247;28;20180;-70
2023/07/30 10:55:52;;;;;;;9.03;3.03;;;;;;;;;;5017257;28;20534;-70
2023/07/30 10:58:18;;;;;;;7.60;2.60;;;;;;;;;;5035632;28;20179;-71
2023/07/30 11:00:44;;;;;;;7.33;3.00;;;;;;;;;;5016846;28;20203;-70
2023/07/30 11:03:11;;;;;;;9.33;2.93;;;;;;;;;;5016747;28;20252;-70
2023/07/30 11:05:40;;;;;;;10.13;2.73;;;;;;;;;;5016880;28;20188;-70
2023/07/30 11:08:06;;;;;;;11.00;3.30;;;;;;;;;;5034319;28;20180;-70
2023/07/30 11:10:32;;;;;;;9.73;3.33;;;;;;;;;;5034517;28;20202;-68
2023/07/30 11:12:58;;;;;;;10.73;2.80;;;;;;;;;;5034230;28;20195;-69
2023/07/30 11:15:25;;;;;;;10.43;2.97;;;;;;;;;;5016744;28;20233;-71
2023/07/30 11:17:55;;;;;;;7.93;2.53;;;;;;;;;;5016547;28;20190;-70
2023/07/30 11:20:27;;;;;;;8.60;2.80;;;;;;;;;;5034338;28;20220;-71
2023/07/30 11:22:53;;;;;;;9.07;2.80;;;;;;;;;;5016380;28;20233;-68
2023/07/30 11:25:20;;;;;;;6.00;2.60;;;;;;;;;;5055827;23;20222;-64
2023/07/30 11:27:49;;;;;;;6.27;2.53;;;;;;;;;;5054238;28;20305;-65
2023/07/30 11:30:15;;;;;;;8.37;2.87;;;;;;;;;;5054356;28;20174;-66
2023/07/30 11:32:44;;;;;;;5.13;2.23;;;;;;;;;;5036098;28;20680;-65
2023/07/30 11:35:11;;;;;;;6.53;2.60;;;;;;;;;;5054291;28;20209;-65
2023/07/30 11:37:39;;;;;;;8.90;2.63;;;;;;;;;;5055324;28;20533;-64
2023/07/30 11:40:06;;;;;;;7.37;2.53;;;;;;;;;;5054363;28;20178;-63
2023/07/30 11:42:33;;;;;;;16.70;3.27;;;;;;;;;;5053453;28;20213;-64
2023/07/30 11:44:59;;;;;;;7.67;2.67;;;;;;;;;;5053553;28;20570;-65
2023/07/30 11:47:27;;;;;;;9.47;2.70;;;;;;;;;;5035833;28;20269;-65
2023/07/30 11:49:57;;;;;;;7.50;2.60;;;;;;;;;;5054064;28;20285;-66
2023/07/30 11:52:23;;;;;;;6.80;2.87;;;;;;;;;;5035707;28;20183;-66
2023/07/30 11:55:00;;;;;;;7.30;2.70;;;;;;;;;;5053648;28;20289;-65
2023/07/30 11:57:33;;;;;;;11.43;2.80;;;;;;;;;;5053786;28;20166;-65
2023/07/30 11:59:59;;;;;;;7.17;2.33;;;;;;;;;;5054131;28;20250;-66
2023/07/30 12:02:25;;;;;;;5.57;2.07;;;;;;;;;;5035704;28;20202;-65
2023/07/30 12:04:51;;;;;;;6.53;2.17;;;;;;;;;;5053520;28;20198;-65
2023/07/30 12:07:26;;;;;;;7.37;2.40;;;;;;;;;;5053546;28;20544;-66
2023/07/30 12:09:52;;;;;;;5.90;1.90;;;;;;;;;;5035690;28;20232;-65
2023/07/30 12:12:18;;;;;;;7.23;2.63;;;;;;;;;;5053448;28;20175;-65
2023/07/30 12:14:45;;;;;;;7.00;2.30;;;;;;;;;;5053536;28;20680;-65
2023/07/30 12:17:11;;;;;;;5.43;2.13;;;;;;;;;;5053294;28;20253;-65
2023/07/30 12:19:37;;;;;;;6.90;2.13;;;;;;;;;;5053790;28;20202;-65
2023/07/30 12:22:03;;;;;;;6.53;2.37;;;;;;;;;;5053455;28;20557;-65
2023/07/30 12:24:29;;;;;;;2.97;1.50;;;;;;;;;;5053401;28;20210;-66
2023/07/30 12:26:55;;;;;;;5.60;2.00;;;;;;;;;;5035359;28;20550;-66
2023/07/30 12:29:21;;;;;;;5.90;2.20;;;;;;;;;;5053475;28;20537;-65
2023/07/30 12:31:47;;;;;;;6.87;2.10;;;;;;;;;;5053365;28;20185;-64
2023/07/30 12:34:13;;;;;;;4.50;1.63;;;;;;;;;;5053566;28;20194;-65
2023/07/30 12:36:39;;;;;;;5.47;2.10;;;;;;;;;;5035429;28;20648;-65
2023/07/30 12:39:05;;;;;;;5.47;1.80;;;;;;;;;;5035735;28;20175;-65
2023/07/30 12:41:31;;;;;;;7.80;2.33;;;;;;;;;;5035757;28;20182;-64
2023/07/30 12:43:57;;;;;;;6.87;1.90;;;;;;;;;;5053840;28;20210;-65
2023/07/30 12:46:24;;;;;;;3.70;2.00;;;;;;;;;;5035590;28;20189;-64
2023/07/30 12:48:50;;;;;;;5.07;1.67;;;;;;;;;;5034994;28;20187;-66
2023/07/30 12:51:16;;;;;;;4.17;1.67;;;;;;;;;;5053158;28;20177;-64
2023/07/30 12:53:41;;;;;;;5.53;1.90;;;;;;;;;;5053030;28;20252;-66
2023/07/30 12:56:08;;;;;;;5.67;2.17;;;;;;;;;;5038896;28;20182;-64
2023/07/30 12:58:33;;;;;;;4.10;1.80;;;;;;;;;;5057238;28;20196;-66
2023/07/30 13:00:59;;;;;;;7.73;2.10;;;;;;;;;;5039199;28;20268;-63
2023/07/30 13:03:25;;;;;;;5.07;2.07;;;;;;;;;;5056927;28;20249;-64
2023/07/30 13:05:51;;;;;;;7.37;2.23;;;;;;;;;;5039454;28;20174;-65
2023/07/30 13:08:17;;;;;;;6.27;2.00;;;;;;;;;;5057114;28;20240;-64
2023/07/30 13:10:43;;;;;;;5.30;2.30;;;;;;;;;;5038981;28;20654;-64
2023/07/30 13:13:09;;;;;;;5.27;2.20;;;;;;;;;;5056946;28;20710;-65
2023/07/30 13:15:35;;;;;;;6.93;2.00;;;;;;;;;;5056761;28;20205;-64
2023/07/30 13:18:01;;;;;;;6.97;2.03;;;;;;;;;;5056932;28;20202;-65
2023/07/30 13:20:27;;;;;;;4.37;2.10;;;;;;;;;;5056541;28;20534;-65
2023/07/30 13:22:53;;;;;;;6.20;2.30;;;;;;;;;;5056890;28;20235;-65
2023/07/30 13:25:20;;;;;;;5.87;2.33;;;;;;;;;;5056408;28;20262;-64
2023/07/30 13:27:46;;;;;;;4.73;2.00;;;;;;;;;;5056562;28;20258;-65
2023/07/30 13:30:12;;;;;;;5.43;2.10;;;;;;;;;;5057038;28;20256;-64
2023/07/30 13:32:38;;;;;;;9.87;2.60;;;;;;;;;;5038877;28;20178;-64
2023/07/30 13:35:04;;;;;;;9.17;2.60;;;;;;;;;;5056708;28;20272;-64
2023/07/30 13:37:30;;;;;;;7.17;2.27;;;;;;;;;;5038680;28;20232;-65
2023/07/30 13:39:56;;;;;;;7.77;2.20;;;;;;;;;;5038678;28;20182;-66
2023/07/30 13:42:22;;;;;;;4.30;1.93;;;;;;;;;;5056514;28;20209;-65
2023/07/30 13:44:48;;;;;;;6.00;2.40;;;;;;;;;;5039597;28;20631;-64
2023/07/30 13:47:14;;;;;;;3.37;1.90;;;;;;;;;;5039786;28;20202;-63
2023/07/30 13:49:40;;;;;;;8.23;2.23;;;;;;;;;;5039520;28;20198;-65
2023/07/30 13:52:06;;;;;;;11.70;2.43;;;;;;;;;;5057075;28;20179;-65
2023/07/30 13:54:32;;;;;;;9.93;2.47;;;;;;;;;;5056788;28;20194;-65
2023/07/30 13:56:58;;;;;;;7.97;2.80;;;;;;;;;;5057479;28;20585;-64
2023/07/30 13:59:23;;;;;;;5.57;2.50;;;;;;;;;;5039229;28;20260;-64
2023/07/30 14:01:49;;;;;;;5.97;2.23;;;;;;;;;;5056879;28;20186;-65
2023/07/30 14:04:15;;;;;;;6.90;2.40;;;;;;;;;;5056347;28;20205;-65
2023/07/30 14:06:41;;;;;;;8.43;2.20;;;;;;;;;;5037993;28;20735;-65
2023/07/30 14:09:07;;;;;;;7.57;2.40;;;;;;;;;;5056160;28;20170;-65
2023/07/30 14:11:33;;;;;;;5.73;2.80;;;;;;;;;;5055962;28;20232;-65
2023/07/30 14:13:59;;;;;;;5.30;2.27;;;;;;;;;;5055878;28;20703;-64
2023/07/30 14:16:25;;;;;;;6.17;2.30;;;;;;;;;;5055818;28;20703;-65
2023/07/30 14:18:51;;;;;;;5.23;1.90;;;;;;;;;;5055819;28;20232;-64
2023/07/30 14:21:17;;;;;;;5.90;2.30;;;;;;;;;;5055883;28;20582;-66
2023/07/30 14:23:43;;;;;;;7.43;2.40;;;;;;;;;;5056275;28;20229;-65
2023/07/30 14:26:09;;;;;;;4.80;2.27;;;;;;;;;;5037865;28;20236;-66
2023/07/30 14:28:35;;;;;;;5.27;2.17;;;;;;;;;;5038752;28;20178;-65
2023/07/30 14:31:01;;;;;;;4.50;2.10;;;;;;;;;;5037752;28;20602;-65